Time;durP1;ratioP1;P1;durP2;ratioP2;P2;SDS_P1;SDS_P2;PMS_P1;PMS_P2;Temp;Humidity;BMP_temperature;BMP_pressure;BME280_temperature;BME280_humidity;BME280_pressure;Samples;Min_cycle;Max_cycle;Signal;HPM_P1;HPM_P2
2023/03/27 00:00:31;;;;;;;2.00;1.80;;;;;;;-143.84;63.51;45167.13;5051719;28;20447;-67
2023/03/27 00:02:59;;;;;;;2.00;1.80;;;;;;;-143.84;63.96;45169.03;5051108;28;20437;-67
2023/03/27 00:05:26;;;;;;;3.10;2.20;;;;;;;-143.84;64.72;45163.31;5050762;28;20469;-67
2023/03/27 00:07:55;;;;;;;2.40;2.20;;;;;;;-143.84;65.24;45186.16;5051518;28;20501;-67
2023/03/27 00:10:23;;;;;;;2.30;2.10;;;;;;;-143.84;64.35;45170.94;5051401;28;20832;-67
2023/03/27 00:12:50;;;;;;;2.60;1.83;;;;;;;-143.84;64.57;45155.69;5052572;28;20435;-67
2023/03/27 00:15:18;;;;;;;3.23;2.70;;;;;;;-143.84;64.29;45180.47;5051809;28;20462;-69
2023/03/27 00:17:49;;;;;;;3.43;3.13;;;;;;;-143.84;68.62;45188.06;5051723;28;20460;-67
2023/03/27 00:20:21;;;;;;;3.97;3.70;;;;;;;-143.84;71.08;45159.50;5051630;28;20439;-67
2023/03/27 00:22:54;;;;;;;3.70;3.50;;;;;;;-143.84;72.47;45161.41;5051440;28;20459;-67
2023/03/27 00:25:22;;;;;;;3.43;3.10;;;;;;;-143.84;72.52;45161.41;5050920;28;20469;-68
2023/03/27 00:27:50;;;;;;;6.50;5.13;;;;;;;-143.84;72.37;45165.22;5051356;28;20434;-67
2023/03/27 00:30:17;;;;;;;4.00;3.70;;;;;;;-143.84;73.16;45157.59;5050745;28;20506;-67
2023/03/27 00:32:44;;;;;;;4.40;4.10;;;;;;;-143.84;72.25;45216.63;5051399;28;20441;-67
2023/03/27 00:35:12;;;;;;;3.57;2.47;;;;;;;-143.84;69.40;45197.59;5051479;28;20449;-67
2023/03/27 00:37:41;;;;;;;3.97;2.57;;;;;;;-143.84;65.82;45170.94;5051658;28;20443;-67
2023/03/27 00:40:14;;;;;;;2.47;2.23;;;;;;;-143.84;64.34;45193.78;5051816;28;20450;-67
2023/03/27 00:42:41;;;;;;;3.63;1.90;;;;;;;-143.84;63.63;45172.84;5051838;28;20452;-67
2023/03/27 00:45:16;;;;;;;3.73;2.17;;;;;;;-143.84;63.10;45167.13;5050765;28;20556;-68
2023/03/27 00:47:46;;;;;;;3.30;1.70;;;;;;;-143.84;62.20;45180.47;5051952;28;20442;-67
2023/03/27 00:50:22;;;;;;;5.37;1.90;;;;;;;-143.84;62.53;45197.59;5051288;28;20525;-67
2023/03/27 00:52:55;;;;;;;2.87;1.93;;;;;;;-143.84;62.33;45172.84;5051712;28;20441;-67
2023/03/27 00:55:22;;;;;;;3.87;2.00;;;;;;;-143.84;62.23;45193.78;5050428;28;20848;-67
2023/03/27 00:57:54;;;;;;;2.27;1.60;;;;;;;-143.84;61.81;45184.25;5051631;28;20439;-67
2023/03/27 01:00:22;;;;;;;2.97;1.70;;;;;;;-143.84;61.92;45184.25;5051451;28;20557;-67
2023/03/27 01:02:50;;;;;;;2.13;1.93;;;;;;;-143.84;62.04;45180.47;5051601;28;20423;-67
2023/03/27 01:05:19;;;;;;;2.90;2.27;;;;;;;-143.84;61.31;45189.97;5051130;28;20545;-67
2023/03/27 01:07:49;;;;;;;1.60;1.50;;;;;;;-143.84;60.72;45163.31;5050507;28;20442;-67
2023/03/27 01:10:18;;;;;;;1.60;1.50;;;;;;;-143.84;60.38;45184.25;5050095;28;20996;-67
2023/03/27 01:12:57;;;;;;;1.93;1.83;;;;;;;-143.84;60.50;45174.75;5050814;28;20447;-67
2023/03/27 01:15:36;;;;;;;2.33;2.13;;;;;;;-143.84;60.62;45174.75;5050893;28;20439;-67
2023/03/27 01:18:14;;;;;;;3.63;2.20;;;;;;;-143.84;60.40;45169.03;5051169;28;20434;-67
2023/03/27 01:21:05;;;;;;;2.00;1.90;;;;;;;-143.84;60.25;45222.34;5051272;28;20452;-67
2023/03/27 01:24:16;;;;;;;4.70;1.53;;;;;;;-143.84;59.79;45184.25;5050820;28;21056;-67
2023/03/27 01:27:04;;;;;;;2.30;2.10;;;;;;;-143.84;59.13;45174.75;4987138;28;20974;-67
2023/03/27 01:30:03;;;;;;;2.03;1.43;;;;;;;-143.84;58.16;45207.13;5050960;28;20444;-67
2023/03/27 01:33:09;;;;;;;2.47;1.80;;;;;;;-143.84;58.18;45201.41;5050654;28;20454;-67
2023/03/27 01:36:26;;;;;;;1.57;1.47;;;;;;;-143.84;56.53;45197.59;5050477;28;20459;-67
2023/03/27 01:39:14;;;;;;;3.67;1.90;;;;;;;-143.84;56.51;45178.56;5050838;28;20498;-67
2023/03/27 01:41:50;;;;;;;1.80;1.70;;;;;;;-143.84;56.06;45186.16;5050593;28;20449;-67
2023/03/27 01:44:25;;;;;;;1.57;1.43;;;;;;;-143.84;56.05;45172.84;5050372;28;20508;-67
2023/03/27 01:46:57;;;;;;;2.00;1.70;;;;;;;-143.84;56.60;45191.88;5050501;28;20450;-67
2023/03/27 01:49:28;;;;;;;1.80;1.70;;;;;;;-143.84;56.45;45182.38;5050690;28;20444;-67
2023/03/27 01:51:58;;;;;;;3.53;1.50;;;;;;;-143.84;56.10;45163.31;5050870;28;20507;-67
2023/03/27 01:54:31;;;;;;;5.60;1.93;;;;;;;-143.84;55.95;45170.94;5050615;28;21027;-67
2023/03/27 01:57:04;;;;;;;1.50;1.40;;;;;;;-143.84;55.57;45172.84;5050039;28;20451;-67
2023/03/27 01:59:36;;;;;;;2.60;1.60;;;;;;;-143.84;54.88;45174.75;5049770;28;20502;-67
2023/03/27 02:02:09;;;;;;;1.87;1.77;;;;;;;-143.84;54.29;45191.88;5049143;28;20437;-67
2023/03/27 02:04:43;;;;;;;12.80;1.30;;;;;;;-143.84;53.29;45172.84;5049161;28;20894;-67
2023/03/27 02:07:14;;;;;;;3.77;1.43;;;;;;;-143.84;53.26;45134.75;5049730;28;20489;-67
2023/03/27 02:09:48;;;;;;;2.40;1.53;;;;;;;-143.84;53.22;45165.22;5049921;28;20975;-67
2023/03/27 02:12:19;;;;;;;2.47;2.20;;;;;;;-143.84;52.96;45146.19;5049361;28;20440;-67
2023/03/27 02:14:53;;;;;;;2.00;1.80;;;;;;;-143.84;52.39;45193.78;5048292;28;20449;-67
2023/03/27 02:17:24;;;;;;;4.03;1.77;;;;;;;-143.84;51.70;45174.75;5048931;28;20496;-67
2023/03/27 02:19:56;;;;;;;3.20;1.83;;;;;;;-143.84;51.95;45170.94;5049480;28;20798;-67
2023/03/27 02:22:23;;;;;;;2.30;1.73;;;;;;;-143.84;52.07;45140.47;5049723;28;20453;-67
2023/03/27 02:24:55;;;;;;;5.67;1.70;;;;;;;-143.84;51.94;45159.50;5049645;28;20469;-67
2023/03/27 02:27:33;;;;;;;2.80;1.37;;;;;;;-143.84;50.82;45172.84;5049776;28;20484;-67
2023/03/27 02:30:14;;;;;;;1.57;1.47;;;;;;;-143.84;50.69;45169.03;5049653;28;21038;-68
2023/03/27 02:32:49;;;;;;;5.03;1.67;;;;;;;-143.84;51.19;45176.66;5049805;28;20927;-67
2023/03/27 02:35:26;;;;;;;3.00;1.87;;;;;;;-143.84;51.13;45148.09;5049736;28;20471;-67
2023/03/27 02:38:03;;;;;;;1.70;1.60;;;;;;;-143.84;51.28;45155.69;5048018;28;20951;-67
2023/03/27 02:40:43;;;;;;;3.60;1.53;;;;;;;-143.84;51.22;45165.22;5047413;28;20439;-67
2023/03/27 02:43:16;;;;;;;1.90;1.80;;;;;;;-143.84;50.92;45170.94;5048717;28;20446;-67
2023/03/27 02:45:52;;;;;;;1.77;1.67;;;;;;;-143.84;51.48;45153.81;5048187;28;20499;-67
2023/03/27 02:48:25;;;;;;;2.77;1.87;;;;;;;-143.84;51.69;45170.94;5048405;28;20458;-67
2023/03/27 02:50:56;;;;;;;7.13;2.20;;;;;;;-143.84;51.69;45216.63;5049318;28;20430;-67
2023/03/27 02:53:27;;;;;;;1.80;1.70;;;;;;;-143.84;51.23;45178.56;5049575;28;20460;-67
2023/03/27 02:55:59;;;;;;;2.83;1.70;;;;;;;-143.84;51.33;45153.81;5049772;28;20830;-67
2023/03/27 02:58:32;;;;;;;2.17;2.07;;;;;;;-143.84;51.47;45159.50;5048470;28;20508;-67
2023/03/27 03:01:01;;;;;;;2.43;1.80;;;;;;;-143.84;51.15;45199.50;5049424;28;20495;-67
2023/03/27 03:03:33;;;;;;;1.93;1.53;;;;;;;-143.84;50.66;45199.50;5049314;28;20434;-67
2023/03/27 03:06:03;;;;;;;2.50;1.97;;;;;;;-143.84;50.56;45163.31;5049887;28;20487;-67
2023/03/27 03:08:30;;;;;;;1.73;1.63;;;;;;;-143.84;49.74;45176.66;5049713;28;20469;-67
2023/03/27 03:11:04;;;;;;;1.67;1.57;;;;;;;-143.84;50.13;45163.31;5049352;28;20564;-67
2023/03/27 03:13:32;;;;;;;2.50;1.60;;;;;;;-143.84;49.74;45174.75;5049543;28;20435;-67
2023/03/27 03:15:59;;;;;;;2.50;2.23;;;;;;;-143.84;49.37;45184.25;5049313;28;20429;-67
2023/03/27 03:18:26;;;;;;;2.90;2.33;;;;;;;-143.84;49.82;45178.56;5051139;28;20447;-67
2023/03/27 03:20:53;;;;;;;3.10;2.10;;;;;;;-143.84;50.36;45205.22;5052362;28;20948;-67
2023/03/27 03:23:21;;;;;;;2.17;1.70;;;;;;;-143.84;50.56;45178.56;5052483;28;20464;-67
2023/03/27 03:25:49;;;;;;;2.40;2.20;;;;;;;-143.84;51.30;45174.75;5052618;28;20586;-67
2023/03/27 03:28:18;;;;;;;2.27;2.07;;;;;;;-143.84;51.64;45199.50;5052377;28;20465;-68
2023/03/27 03:30:49;;;;;;;10.63;2.20;;;;;;;-143.84;52.42;45193.78;5053158;28;20529;-66
2023/03/27 03:33:18;;;;;;;3.30;1.80;;;;;;;-143.84;53.17;45195.69;5052771;28;20444;-67
2023/03/27 03:35:48;;;;;;;4.10;2.40;;;;;;;-143.84;53.52;45163.31;5052481;28;20434;-66
2023/03/27 03:38:23;;;;;;;6.20;2.67;;;;;;;-143.84;53.49;45180.47;5053001;28;20439;-66
2023/03/27 03:40:54;;;;;;;2.73;2.43;;;;;;;-143.84;54.04;45174.75;5052432;28;20447;-65
2023/03/27 03:43:24;;;;;;;4.70;4.30;;;;;;;-143.84;63.21;45167.13;5052521;28;20811;-67
2023/03/27 03:45:52;;;;;;;7.30;5.00;;;;;;;-143.84;70.36;45165.22;5053302;28;20554;-66
2023/03/27 03:48:20;;;;;;;9.17;6.27;;;;;;;-143.84;73.04;45142.38;5052732;28;20442;-67
2023/03/27 03:50:48;;;;;;;11.57;6.07;;;;;;;-143.84;75.87;45138.56;5052883;28;20451;-67
2023/03/27 03:53:18;;;;;;;7.93;5.80;;;;;;;-143.84;79.61;45026.22;5052828;28;20438;-67
2023/03/27 03:55:46;;;;;;;6.07;5.47;;;;;;;-143.84;80.97;44902.44;5052486;28;20495;-67
2023/03/27 03:58:13;;;;;;;6.40;5.80;;;;;;;-143.84;82.18;44761.56;5066515;28;20456;-66
2023/03/27 04:00:42;;;;;;;10.97;7.40;;;;;;;-143.84;82.89;44687.28;5072523;28;20507;-66
2023/03/27 04:03:10;;;;;;;8.20;6.83;;;;;;;-143.84;83.07;44607.34;5072544;28;20551;-66
2023/03/27 04:05:38;;;;;;;18.27;7.33;;;;;;;-143.84;83.09;44662.53;5072320;28;20914;-66
2023/03/27 04:08:06;;;;;;;8.37;7.53;;;;;;;-143.84;83.46;44563.53;5072362;28;20444;-66
2023/03/27 04:10:34;;;;;;;18.60;7.10;;;;;;;-143.84;84.00;44376.97;5072333;28;20502;-66
2023/03/27 04:13:01;;;;;;;7.93;7.17;;;;;;;-143.84;84.57;44276.06;5072601;28;20448;-66
2023/03/27 04:15:28;;;;;;;8.37;7.43;;;;;;;-143.84;84.63;44274.16;5072331;28;20456;-66
2023/03/27 04:17:57;;;;;;;10.27;8.00;;;;;;;-143.84;84.89;44148.53;5072189;28;20452;-66
2023/03/27 04:20:25;;;;;;;7.40;6.70;;;;;;;-143.84;85.21;44137.09;5072310;28;20445;-67
2023/03/27 04:22:53;;;;;;;9.60;6.93;;;;;;;-143.84;85.29;44089.50;5071126;28;20455;-66
2023/03/27 04:25:22;;;;;;;7.27;5.80;;;;;;;-143.84;85.78;44038.09;5070350;28;21035;-66
2023/03/27 04:27:51;;;;;;;7.83;6.90;;;;;;;-143.84;85.85;43981.00;5070952;28;20498;-66
2023/03/27 04:30:22;;;;;;;7.63;6.33;;;;;;;-143.84;85.85;43986.72;5071770;28;20559;-67
2023/03/27 04:32:50;;;;;;;7.40;6.27;;;;;;;-143.84;85.98;43963.88;5071931;28;20440;-66
2023/03/27 04:35:19;;;;;;;6.67;5.77;;;;;;;-143.84;86.11;43979.09;5071751;28;20538;-66
2023/03/27 04:37:47;;;;;;;6.17;5.60;;;;;;;-143.84;85.93;44017.16;5072095;28;20995;-66
2023/03/27 04:40:17;;;;;;;5.77;5.27;;;;;;;-143.84;85.60;44062.84;5070990;28;20441;-67
2023/03/27 04:42:44;;;;;;;5.77;5.13;;;;;;;-143.84;85.34;44104.72;5071245;28;20536;-67
2023/03/27 04:45:15;;;;;;;8.57;5.93;;;;;;;-143.84;85.06;44186.59;5071098;28;20540;-66
2023/03/27 04:47:43;;;;;;;8.27;6.70;;;;;;;-143.84;84.41;44390.28;5071030;28;20895;-66
2023/03/27 04:50:13;;;;;;;12.97;6.57;;;;;;;-143.84;84.54;44361.72;5071508;28;20448;-66
2023/03/27 04:52:42;;;;;;;8.97;6.20;;;;;;;-143.84;84.88;44253.22;5071852;28;20422;-66
2023/03/27 04:55:11;;;;;;;9.13;6.70;;;;;;;-143.84;85.14;44137.09;5071790;28;20551;-66
2023/03/27 04:57:38;;;;;;;5.47;4.90;;;;;;;-143.84;85.09;44161.84;5071550;28;20444;-66
2023/03/27 05:00:15;;;;;;;7.90;5.30;;;;;;;-143.84;85.27;44097.13;5071273;28;20440;-66
2023/03/27 05:02:43;;;;;;;6.57;6.00;;;;;;;-143.84;83.51;44542.59;5071094;28;20433;-66
2023/03/27 05:05:10;;;;;;;5.87;5.40;;;;;;;-143.84;80.50;44995.75;5071512;28;20505;-67
2023/03/27 05:07:38;;;;;;;7.23;5.47;;;;;;;-143.84;78.65;45043.34;5071165;28;20443;-66
2023/03/27 05:10:07;;;;;;;13.43;5.20;;;;;;;-143.84;74.95;45132.84;5071053;28;20520;-67
2023/03/27 05:12:35;;;;;;;5.40;4.90;;;;;;;-143.84;73.67;45186.16;5071308;28;20961;-66
2023/03/27 05:15:05;;;;;;;9.73;5.53;;;;;;;-143.84;72.54;45117.63;5070296;28;20454;-66
2023/03/27 05:17:32;;;;;;;7.23;4.57;;;;;;;-143.84;71.45;45167.13;5071053;28;20948;-67
2023/03/27 05:19:59;;;;;;;9.90;4.83;;;;;;;-143.84;70.60;45144.28;5070750;28;20524;-66
2023/03/27 05:22:26;;;;;;;10.30;5.23;;;;;;;-143.84;70.26;45146.19;5070970;28;20458;-66
2023/03/27 05:24:54;;;;;;;6.27;5.43;;;;;;;-143.84;69.81;45157.59;5070655;28;20487;-66
2023/03/27 05:27:22;;;;;;;9.07;4.47;;;;;;;-143.84;69.57;45138.56;5071349;28;20433;-67
2023/03/27 05:29:50;;;;;;;7.50;5.27;;;;;;;-143.84;69.59;45142.38;5070986;28;20448;-66
2023/03/27 05:32:17;;;;;;;9.60;5.87;;;;;;;-143.84;69.15;45148.09;5070927;28;20439;-66
2023/03/27 05:34:44;;;;;;;8.70;5.53;;;;;;;-143.84;68.66;45138.56;5071348;28;20436;-67
2023/03/27 05:37:11;;;;;;;6.37;5.77;;;;;;;-143.84;68.43;45140.47;5071088;28;20528;-66
2023/03/27 05:39:40;;;;;;;7.00;5.57;;;;;;;-143.84;67.93;45174.75;5070495;28;20440;-66
2023/03/27 05:42:07;;;;;;;12.07;5.80;;;;;;;-143.84;66.90;45148.09;5070293;28;20446;-66
2023/03/27 05:44:36;;;;;;;12.80;7.67;;;;;;;-143.84;66.99;45140.47;5071176;28;20820;-67
2023/03/27 05:47:03;;;;;;;9.20;7.60;;;;;;;-143.84;66.27;45161.41;5071078;28;20444;-66
2023/03/27 05:49:30;;;;;;;12.80;8.53;;;;;;;-143.84;66.92;45117.63;5070175;28;20466;-66
2023/03/27 05:51:57;;;;;;;13.73;10.70;;;;;;;-143.84;67.55;45144.28;5069492;28;20441;-66
2023/03/27 05:54:24;;;;;;;18.13;10.33;;;;;;;-143.84;67.25;45136.66;5069470;28;20443;-66
2023/03/27 05:56:52;;;;;;;11.93;9.33;;;;;;;-143.84;67.58;45125.22;5070384;28;20445;-66
2023/03/27 05:59:19;;;;;;;11.10;9.67;;;;;;;-143.84;67.23;45111.91;5070090;28;20460;-67
2023/03/27 06:01:49;;;;;;;13.03;8.80;;;;;;;-143.84;66.90;45157.59;5069483;28;20509;-66
2023/03/27 06:04:16;;;;;;;7.77;7.00;;;;;;;-143.84;65.38;45157.59;5070323;28;20934;-66
2023/03/27 06:06:44;;;;;;;10.47;8.50;;;;;;;-143.84;67.04;45151.91;5070039;28;20515;-66
2023/03/27 06:09:12;;;;;;;10.43;7.03;;;;;;;-143.84;67.60;45132.84;5070445;28;20448;-67
2023/03/27 06:11:39;;;;;;;8.33;6.20;;;;;;;-143.84;67.60;45140.47;5070232;28;20468;-66
2023/03/27 06:14:07;;;;;;;12.50;7.43;;;;;;;-143.84;66.74;45117.63;5070360;28;20437;-66
2023/03/27 06:16:34;;;;;;;14.70;7.37;;;;;;;-143.84;66.47;45159.50;5070180;28;20436;-67
2023/03/27 06:19:03;;;;;;;8.60;7.17;;;;;;;-143.84;66.53;45138.56;5069872;28;20495;-66
2023/03/27 06:21:30;;;;;;;7.03;6.23;;;;;;;-143.84;70.20;45138.56;5070410;28;20653;-66
2023/03/27 06:23:57;;;;;;;6.87;6.27;;;;;;;-143.84;70.97;45155.69;5070161;28;20439;-66
2023/03/27 06:26:26;;;;;;;14.10;7.50;;;;;;;-143.84;67.39;45113.81;5069888;28;20481;-66
2023/03/27 06:28:54;;;;;;;6.30;5.70;;;;;;;-143.84;66.87;45144.28;5069907;28;20441;-66
2023/03/27 06:31:21;;;;;;;7.50;6.80;;;;;;;-143.84;64.85;45130.94;5069873;28;20451;-66
2023/03/27 06:33:51;;;;;;;8.60;6.20;;;;;;;-143.84;63.14;45129.03;5068093;28;20938;-66
2023/03/27 06:36:19;;;;;;;6.83;6.17;;;;;;;-143.84;62.94;45132.84;5068788;28;20472;-66
2023/03/27 06:38:46;;;;;;;6.20;5.60;;;;;;;-143.84;62.26;45153.81;5069221;28;20495;-66
2023/03/27 06:41:13;;;;;;;7.53;5.70;;;;;;;-143.84;59.59;45150.00;5069670;28;20440;-66
2023/03/27 06:43:41;;;;;;;6.70;5.37;;;;;;;-143.84;61.24;45132.84;5069869;28;20869;-66
2023/03/27 06:46:08;;;;;;;8.43;6.13;;;;;;;-143.84;61.81;45144.28;5069734;28;20537;-67
2023/03/27 06:48:35;;;;;;;10.27;6.63;;;;;;;-143.84;62.55;45144.28;5070008;28;20803;-66
2023/03/27 06:51:02;;;;;;;7.03;6.33;;;;;;;-143.84;61.85;45111.91;5069553;28;20490;-66
2023/03/27 06:53:31;;;;;;;6.73;6.07;;;;;;;-143.84;63.33;45130.94;5072914;28;20473;-66
2023/03/27 06:55:58;;;;;;;6.17;5.57;;;;;;;-143.84;59.75;45153.81;5073459;28;20455;-66
2023/03/27 06:58:26;;;;;;;6.47;4.97;;;;;;;-143.84;58.11;45130.94;5073560;28;21008;-66
2023/03/27 07:00:54;;;;;;;6.10;5.60;;;;;;;-143.84;57.54;45138.56;5071663;28;20447;-67
2023/03/27 07:03:22;;;;;;;7.40;6.70;;;;;;;-143.84;56.98;45140.47;5071604;28;20445;-66
2023/03/27 07:05:49;;;;;;;8.10;5.23;;;;;;;-143.84;57.59;45129.03;5073067;28;20470;-66
2023/03/27 07:08:18;;;;;;;6.40;5.00;;;;;;;-143.84;58.55;45129.03;5073027;28;20499;-67
2023/03/27 07:10:46;;;;;;;8.00;5.13;;;;;;;-143.84;57.86;45123.34;5072428;28;20487;-67
2023/03/27 07:13:14;;;;;;;9.13;5.40;;;;;;;-143.84;55.75;45132.84;5073500;28;20433;-67
2023/03/27 07:15:41;;;;;;;7.07;5.67;;;;;;;-143.84;54.81;45129.03;5073677;28;20486;-66
2023/03/27 07:18:10;;;;;;;8.53;5.87;;;;;;;-143.84;54.40;45090.97;5073801;28;20440;-66
2023/03/27 07:20:38;;;;;;;5.53;4.90;;;;;;;-143.84;50.10;45127.13;5073206;28;20468;-67
2023/03/27 07:23:05;;;;;;;5.93;5.23;;;;;;;-143.84;50.22;45121.44;5072141;28;20449;-66
2023/03/27 07:25:36;;;;;;;7.13;5.50;;;;;;;-143.84;51.06;45106.19;5072650;28;20472;-66
2023/03/27 07:28:08;;;;;;;9.27;4.93;;;;;;;-143.84;51.44;45104.28;5073040;28;20467;-66
2023/03/27 07:30:36;;;;;;;4.97;4.67;;;;;;;-143.84;49.48;45119.53;5073150;28;20487;-66
2023/03/27 07:33:04;;;;;;;5.70;5.20;;;;;;;-143.84;49.68;45125.22;5073153;28;20436;-66
2023/03/27 07:35:31;;;;;;;5.30;4.80;;;;;;;-143.84;50.22;45117.63;5073188;28;20926;-67
2023/03/27 07:37:59;;;;;;;5.73;4.50;;;;;;;-143.84;50.42;45113.81;5073069;28;20444;-67
2023/03/27 07:40:26;;;;;;;5.60;5.10;;;;;;;-143.84;51.44;45127.13;5073418;28;20844;-67
2023/03/27 07:42:53;;;;;;;5.50;5.10;;;;;;;-143.84;51.51;45121.44;5073357;28;20441;-67
2023/03/27 07:45:23;;;;;;;5.17;4.77;;;;;;;-143.84;51.35;45104.28;5072897;28;20468;-67
2023/03/27 07:47:50;;;;;;;5.93;5.40;;;;;;;-143.84;51.44;45108.09;5073351;28;20464;-67
2023/03/27 07:50:20;;;;;;;6.03;4.40;;;;;;;-143.84;52.12;45106.19;5072938;28;20437;-67
2023/03/27 07:52:48;;;;;;;5.73;4.97;;;;;;;-143.84;52.81;45140.47;5072607;28;20452;-67
2023/03/27 07:55:18;;;;;;;6.13;5.17;;;;;;;-143.84;53.58;45108.09;5073137;28;20437;-67
2023/03/27 07:57:47;;;;;;;7.00;6.30;;;;;;;-143.84;52.53;45119.53;5072724;28;20487;-67
2023/03/27 08:00:16;;;;;;;8.70;6.57;;;;;;;-143.84;54.60;45117.63;5072777;28;20444;-67
2023/03/27 08:02:46;;;;;;;5.97;5.47;;;;;;;-143.84;54.76;45129.03;5072972;28;20417;-67
2023/03/27 08:05:13;;;;;;;9.20;6.87;;;;;;;-143.84;54.27;45111.91;5071019;28;20440;-66
2023/03/27 08:07:41;;;;;;;8.40;7.00;;;;;;;-143.84;54.75;45136.66;5071058;28;20557;-66
2023/03/27 08:10:09;;;;;;;7.53;6.73;;;;;;;-143.84;54.59;45108.09;5071428;28;20953;-67
2023/03/27 08:12:37;;;;;;;16.73;6.87;;;;;;;-143.84;54.62;45113.81;5072208;28;20456;-66
2023/03/27 08:15:05;;;;;;;7.90;7.10;;;;;;;-143.84;54.97;45087.16;5072909;28;20512;-66
2023/03/27 08:17:34;;;;;;;8.30;6.23;;;;;;;-143.84;54.94;45134.75;5072732;28;20441;-67
2023/03/27 08:20:07;;;;;;;6.90;6.30;;;;;;;-143.84;55.52;45125.22;5072440;28;20794;-67
2023/03/27 08:22:36;;;;;;;7.33;6.73;;;;;;;-143.84;54.63;45148.09;5072298;28;20448;-67
2023/03/27 08:25:04;;;;;;;10.57;6.93;;;;;;;-143.84;56.25;45146.19;5071206;28;20441;-67
2023/03/27 08:27:32;;;;;;;6.80;6.20;;;;;;;-143.84;55.40;45138.56;5072291;28;20557;-67
2023/03/27 08:29:59;;;;;;;7.60;6.97;;;;;;;-143.84;57.15;45138.56;5072310;28;20440;-67
2023/03/27 08:32:26;;;;;;;7.00;6.40;;;;;;;-143.84;57.29;45108.09;5072309;28;20646;-67
2023/03/27 08:34:54;;;;;;;7.33;6.63;;;;;;;-143.84;57.97;45132.84;5072538;28;20509;-67
2023/03/27 08:37:23;;;;;;;6.77;6.27;;;;;;;-143.84;56.22;45102.38;5072432;28;20785;-67
2023/03/27 08:39:50;;;;;;;7.80;6.53;;;;;;;-143.84;57.32;45127.13;5072303;28;20514;-67
2023/03/27 08:42:21;;;;;;;8.23;7.00;;;;;;;-143.84;57.22;45104.28;5072308;28;20444;-67
2023/03/27 08:44:53;;;;;;;7.77;6.77;;;;;;;-143.84;58.01;45138.56;5071889;28;20961;-67
2023/03/27 08:47:28;;;;;;;6.20;5.70;;;;;;;-143.84;57.09;45119.53;5069858;28;21075;-66
2023/03/27 08:49:58;;;;;;;11.60;6.80;;;;;;;-143.84;57.37;45102.38;5070368;28;20545;-67
2023/03/27 08:52:29;;;;;;;9.47;8.47;;;;;;;-143.84;59.87;45119.53;5070901;28;20443;-67
2023/03/27 08:55:00;;;;;;;9.40;8.43;;;;;;;-143.84;60.96;45132.84;5071585;28;20479;-67
2023/03/27 08:57:30;;;;;;;8.37;7.60;;;;;;;-143.84;58.94;45119.53;5071555;28;20440;-67
2023/03/27 09:00:00;;;;;;;10.27;8.20;;;;;;;-143.84;60.34;45121.44;5071331;28;20445;-67
2023/03/27 09:02:42;;;;;;;11.13;9.23;;;;;;;-143.84;59.21;45119.53;5071547;28;20448;-67
2023/03/27 09:05:18;;;;;;;10.70;9.60;;;;;;;-143.84;60.04;45113.81;5071508;28;20432;-67
2023/03/27 09:07:54;;;;;;;11.00;9.80;;;;;;;-143.84;59.85;45129.03;5071279;28;20540;-67
2023/03/27 09:10:26;;;;;;;11.70;10.40;;;;;;;-143.84;60.75;45146.19;5071183;28;20545;-66
2023/03/27 09:13:04;;;;;;;15.53;12.10;;;;;;;-143.84;63.25;45117.63;5071626;28;20447;-67
2023/03/27 09:15:36;;;;;;;17.60;13.67;;;;;;;-143.84;61.83;45127.13;5070370;28;20523;-67
2023/03/27 09:18:10;;;;;;;16.77;12.23;;;;;;;-143.84;62.99;45115.72;5071260;28;20849;-67
2023/03/27 09:20:43;;;;;;;18.73;13.50;;;;;;;-143.84;62.56;45119.53;5071006;28;20440;-67
2023/03/27 09:23:17;;;;;;;19.53;13.77;;;;;;;-143.84;62.54;45121.44;5071141;28;20455;-67
2023/03/27 09:25:47;;;;;;;18.77;13.60;;;;;;;-143.84;62.29;45106.19;5070968;28;20464;-67
2023/03/27 09:28:21;;;;;;;17.40;13.60;;;;;;;-143.84;62.89;45108.09;5070936;28;20452;-67
2023/03/27 09:30:48;;;;;;;18.93;14.87;;;;;;;-143.84;60.45;45104.28;5070570;28;20439;-67
2023/03/27 09:33:16;;;;;;;18.07;14.77;;;;;;;-143.84;60.36;45092.88;5070561;28;20444;-66
2023/03/27 09:35:43;;;;;;;18.87;14.20;;;;;;;-143.84;61.38;45117.63;5070625;28;20452;-66
2023/03/27 09:38:23;;;;;;;17.93;15.50;;;;;;;-143.84;62.09;45121.44;5070878;28;20536;-66
2023/03/27 09:40:57;;;;;;;26.63;17.27;;;;;;;-143.84;63.22;45125.22;5070433;28;20446;-66
2023/03/27 09:43:28;;;;;;;22.50;17.40;;;;;;;-143.84;64.59;45142.38;5070368;28;20443;-66
2023/03/27 09:45:58;;;;;;;24.43;16.87;;;;;;;-143.84;65.45;45132.84;5070002;28;20455;-66
2023/03/27 09:48:34;;;;;;;26.33;17.47;;;;;;;-143.84;66.90;45125.22;5069942;28;20439;-66
2023/03/27 09:51:01;;;;;;;20.57;17.87;;;;;;;-143.84;65.28;45125.22;5069911;28;20438;-66
2023/03/27 09:53:29;;;;;;;24.73;16.30;;;;;;;-143.84;65.88;45140.47;5069878;28;20451;-67
2023/03/27 09:56:00;;;;;;;20.87;15.00;;;;;;;-143.84;64.65;45113.81;5070503;28;20453;-67
2023/03/27 09:58:35;;;;;;;23.87;18.20;;;;;;;-143.84;67.08;45129.03;5070360;28;20448;-66
2023/03/27 10:01:14;;;;;;;27.33;19.93;;;;;;;-143.84;68.89;45119.53;5070109;28;20813;-66
2023/03/27 10:03:48;;;;;;;21.13;17.00;;;;;;;-143.84;67.18;45130.94;5070076;28;20441;-66
2023/03/27 10:06:25;;;;;;;22.80;16.50;;;;;;;-143.84;64.72;45111.91;5069339;28;20910;-67
2023/03/27 10:08:55;;;;;;;24.07;17.13;;;;;;;-143.84;65.31;45123.34;5069553;28;20934;-67
2023/03/27 10:11:26;;;;;;;25.83;17.70;;;;;;;-143.84;65.48;45125.22;5068400;28;20860;-67
2023/03/27 10:13:54;;;;;;;21.30;16.67;;;;;;;-143.84;63.37;45125.22;5068461;28;20444;-67
2023/03/27 10:16:23;;;;;;;22.73;16.03;;;;;;;-143.84;65.27;45140.47;5069829;28;20502;-66
2023/03/27 10:18:53;;;;;;;23.60;16.13;;;;;;;-143.84;62.19;45106.19;5070072;28;20450;-67
2023/03/27 10:21:28;;;;;;;19.20;15.87;;;;;;;-143.84;61.43;45098.56;5070535;28;20450;-67
2023/03/27 10:24:02;;;;;;;25.07;17.40;;;;;;;-143.84;61.35;45110.00;5070205;28;20445;-67
2023/03/27 10:26:33;;;;;;;31.13;16.90;;;;;;;-143.84;61.69;45115.72;5069760;28;20815;-66
2023/03/27 10:29:18;;;;;;;19.77;14.90;;;;;;;-143.84;60.72;45094.78;5069317;28;20517;-67
2023/03/27 10:31:50;;;;;;;18.50;15.70;;;;;;;-143.84;61.47;45125.22;5068891;28;20486;-67
2023/03/27 10:34:33;;;;;;;21.83;17.27;;;;;;;-143.84;63.03;45117.63;5070275;28;20539;-67
2023/03/27 10:37:03;;;;;;;21.33;15.87;;;;;;;-143.84;62.93;45138.56;5070080;28;20452;-67
2023/03/27 10:39:35;;;;;;;22.10;15.40;;;;;;;-143.84;63.33;45106.19;5069873;28;21263;-67
2023/03/27 10:42:08;;;;;;;22.97;16.13;;;;;;;-143.84;64.96;45136.66;5070285;28;20458;-66
2023/03/27 10:44:37;;;;;;;23.87;17.40;;;;;;;-143.84;66.44;45134.75;5070151;28;20449;-67
2023/03/27 10:47:06;;;;;;;21.90;17.97;;;;;;;-143.84;66.92;45146.19;5070086;28;20566;-67
2023/03/27 10:49:43;;;;;;;23.50;18.37;;;;;;;-143.84;69.29;45129.03;5070095;28;20528;-67
2023/03/27 10:52:23;;;;;;;25.73;17.40;;;;;;;-143.84;67.28;45106.19;5070128;28;21139;-67
2023/03/27 10:55:05;;;;;;;20.33;15.17;;;;;;;-143.84;64.91;45129.03;5070010;28;20501;-66
2023/03/27 10:57:34;;;;;;;20.13;15.60;;;;;;;-143.84;64.59;45142.38;5070012;28;21081;-67
2023/03/27 11:00:12;;;;;;;27.07;17.77;;;;;;;-143.84;66.05;45138.56;5068445;28;20535;-67
2023/03/27 11:02:47;;;;;;;21.73;15.70;;;;;;;-143.84;64.04;45110.00;5068578;28;21293;-67
2023/03/27 11:05:18;;;;;;;28.10;17.63;;;;;;;-143.84;65.03;45117.63;5068730;28;20431;-67
2023/03/27 11:07:50;;;;;;;25.33;18.20;;;;;;;-143.84;68.55;45110.00;5069475;28;20893;-67
2023/03/27 11:10:22;;;;;;;22.27;15.77;;;;;;;-143.84;65.47;45150.00;5069888;28;20482;-67
2023/03/27 11:12:56;;;;;;;23.97;15.57;;;;;;;-143.84;64.88;45090.97;5069620;28;20444;-67
2023/03/27 11:15:27;;;;;;;33.20;16.53;;;;;;;-143.84;67.00;45129.03;5070472;28;20468;-67
2023/03/27 11:17:59;;;;;;;25.00;17.00;;;;;;;-143.84;66.79;45127.13;5069727;28;20443;-67
2023/03/27 11:20:32;;;;;;;25.13;16.23;;;;;;;-143.84;67.10;45121.44;5069707;28;20443;-67
2023/03/27 11:23:04;;;;;;;20.60;14.73;;;;;;;-143.84;66.31;45117.63;5069563;28;20801;-67
2023/03/27 11:25:39;;;;;;;29.23;15.97;;;;;;;-143.84;66.79;45159.50;5069449;28;21017;-67
2023/03/27 11:28:25;;;;;;;24.70;16.20;;;;;;;-143.84;67.43;45127.13;5069460;28;20907;-67